Time;durP1;ratioP1;P1;durP2;ratioP2;P2;SDS_P1;SDS_P2;PMS_P1;PMS_P2;Temp;Humidity;BMP_temperature;BMP_pressure;BME280_temperature;BME280_humidity;BME280_pressure;Samples;Min_cycle;Max_cycle;Signal;HPM_P1;HPM_P2
2021/12/01 00:00:05;;;;;;;;;12.25;12.25;;;;;4.09;66.65;99682.66;4840622;29;11719;-73
2021/12/01 00:03:01;;;;;;;;;10.25;8.00;;;;;4.06;66.88;99683.25;4843475;29;11712;-73
2021/12/01 00:05:57;;;;;;;;;12.00;12.00;;;;;4.07;67.11;99690.38;4843692;29;12618;-73
2021/12/01 00:08:52;;;;;;;;;11.00;11.00;;;;;4.00;67.04;99696.28;4824889;29;11731;-73
2021/12/01 00:11:20;;;;;;;;;11.75;11.75;;;;;3.94;67.26;99693.97;4826513;29;11797;-73
2021/12/01 00:14:16;;;;;;;;;13.75;13.75;;;;;3.94;67.72;99689.31;4824815;29;11864;-73
2021/12/01 00:17:12;;;;;;;;;10.00;10.00;;;;;3.86;67.38;99693.59;4813055;29;11713;-73
2021/12/01 00:20:15;;;;;;;;;10.00;10.00;;;;;3.93;67.43;99692.34;4825183;29;11718;-73
2021/12/01 00:23:11;;;;;;;;;13.25;13.25;;;;;3.83;67.75;99691.50;4824783;29;11704;-73
2021/12/01 00:26:06;;;;;;;;;11.25;11.25;;;;;3.94;67.64;99691.25;4824666;29;11757;-73
2021/12/01 00:29:03;;;;;;;;;11.00;11.00;;;;;3.72;68.17;99702.97;4825455;29;11798;-73
2021/12/01 00:31:30;;;;;;;;;14.25;14.25;;;;;3.61;68.86;99691.47;4822876;29;11725;-73
2021/12/01 00:34:26;;;;;;;;;10.00;10.00;;;;;3.54;69.04;99683.69;4842861;29;11709;-73
2021/12/01 00:37:22;;;;;;;;;12.50;11.25;;;;;3.55;69.18;99685.31;4842888;29;11786;-73
2021/12/01 00:40:18;;;;;;;;;10.50;9.00;;;;;3.55;68.84;99689.97;4829283;29;11790;-73
2021/12/01 00:42:46;;;;;;;;;10.25;10.25;;;;;3.57;68.97;99691.25;4843684;29;11695;-73
2021/12/01 00:45:50;;;;;;;;;11.75;11.75;;;;;3.51;69.91;99692.47;4830717;29;12282;-73
2021/12/01 00:48:46;;;;;;;;;9.50;8.75;;;;;3.76;69.21;99690.31;4842757;29;12591;-73
2021/12/01 00:51:42;;;;;;;;;14.50;12.75;;;;;3.75;69.45;99702.34;4841906;29;11712;-72
2021/12/01 00:54:37;;;;;;;;;17.00;17.00;;;;;3.61;70.35;99705.13;4841313;29;11710;-72
2021/12/01 00:57:33;;;;;;;;;5.25;5.25;;;;;3.50;70.51;99704.53;4836542;29;11768;-73
2021/12/01 01:00:30;;;;;;;;;14.25;14.00;;;;;3.45;71.55;99695.63;4829788;29;12525;-74
2021/12/01 01:03:28;;;;;;;;;14.00;13.75;;;;;3.49;71.76;99697.47;4834582;29;11710;-73
2021/12/01 01:06:23;;;;;;;;;15.25;15.00;;;;;3.36;72.18;99698.28;4824031;29;11820;-73
2021/12/01 01:09:19;;;;;;;;;13.00;13.00;;;;;3.45;71.94;99698.38;4823882;29;11726;-73
2021/12/01 01:18:47;;;;;;;;;11.75;11.75;;;;;3.26;73.45;99707.53;4828390;29;12415;-72
2021/12/01 01:21:48;;;;;;;;;13.75;13.75;;;;;3.20;73.51;99707.94;4824100;29;11718;-73
2021/12/01 01:24:43;;;;;;;;;7.00;7.00;;;;;3.04;74.13;99716.44;4823722;29;12531;-73
2021/12/01 01:27:39;;;;;;;;;10.50;10.50;;;;;3.16;74.08;99723.34;4824781;29;11704;-73
2021/12/01 01:30:35;;;;;;;;;10.00;10.00;;;;;3.06;74.39;99721.59;4823635;29;11692;-73
2021/12/01 01:33:31;;;;;;;;;14.25;14.25;;;;;2.89;74.98;99719.50;4840763;29;11699;-73
2021/12/01 01:36:27;;;;;;;;;9.00;9.00;;;;;2.93;74.99;99720.50;4841833;29;11732;-73
2021/12/01 01:39:23;;;;;;;;;11.75;11.25;;;;;2.95;75.17;99726.47;4841494;29;11699;-73
2021/12/01 01:42:19;;;;;;;;;12.00;12.00;;;;;2.85;74.64;99725.88;4840771;29;11712;-73
2021/12/01 01:45:16;;;;;;;;;14.50;14.50;;;;;2.74;75.79;99734.25;4841716;29;11726;-73
2021/12/01 01:48:14;;;;;;;;;11.25;11.25;;;;;2.75;75.27;99737.78;4841664;29;11701;-73
2021/12/01 01:51:09;;;;;;;;;12.75;11.00;;;;;2.82;75.47;99738.19;4840691;29;11683;-73
2021/12/01 01:54:05;;;;;;;;;12.25;12.25;;;;;2.65;76.10;99741.53;4817514;29;11694;-73
2021/12/01 01:57:01;;;;;;;;;12.50;12.50;;;;;2.70;75.86;99738.72;4841525;29;11726;-73
2021/12/01 01:59:43;;;;;;;;;12.75;12.75;;;;;2.63;76.08;99742.94;4842586;29;11714;-73
2021/12/01 02:02:39;;;;;;;;;12.75;12.75;;;;;2.82;75.82;99743.66;4830232;29;11762;-73
2021/12/01 02:05:37;;;;;;;;;11.75;11.75;;;;;2.67;76.60;99758.41;4831112;29;11724;-73
2021/12/01 02:08:35;;;;;;;;;12.25;12.25;;;;;2.59;76.39;99763.75;4840876;29;11739;-73
2021/12/01 02:11:31;;;;;;;;;11.50;10.50;;;;;2.78;75.89;99761.78;4838489;29;11814;-72
2021/12/01 02:14:28;;;;;;;;;9.25;7.50;;;;;2.65;76.43;99768.00;4837270;29;11762;-72
2021/12/01 02:17:24;;;;;;;;;15.00;15.00;;;;;2.69;75.62;99774.50;4824048;29;11775;-73
2021/12/01 02:20:20;;;;;;;;;9.25;9.25;;;;;2.75;74.67;99767.81;4838158;29;11723;-72
2021/12/01 02:23:16;;;;;;;;;14.25;14.25;;;;;2.76;73.62;99781.19;4840153;29;11726;-72
2021/12/01 02:26:14;;;;;;;;;14.25;14.25;;;;;2.52;74.90;99788.69;4828552;29;11856;-72
2021/12/01 02:28:44;;;;;;;;;22.00;22.00;;;;;2.66;74.48;99792.28;4807563;29;11718;-72
2021/12/01 02:31:40;;;;;;;;;27.50;26.25;;;;;2.74;74.77;99794.31;4823315;29;11769;-72
2021/12/01 02:34:10;;;;;;;;;19.00;19.00;;;;;2.56;75.31;99792.47;4841844;29;11742;-72
2021/12/01 02:36:40;;;;;;;;;24.00;23.50;;;;;2.66;75.42;99791.47;4845091;29;11819;-72
2021/12/01 02:39:11;;;;;;;;;18.50;18.25;;;;;2.61;75.83;99800.56;4845845;29;12512;-72
2021/12/01 02:41:39;;;;;;;;;33.33;30.67;;;;;2.71;75.24;99802.31;4845869;29;11752;-72
2021/12/01 02:44:08;;;;;;;;;38.67;36.33;;;;;2.81;75.33;99807.56;4845032;29;11721;-73
2021/12/01 02:46:37;;;;;;;;;35.67;33.33;;;;;2.77;74.78;99799.19;4844769;29;9663;-73
2021/12/01 02:49:06;;;;;;;;;55.00;45.00;;;;;2.67;75.83;99804.00;4845612;29;11752;-73
2021/12/01 02:51:36;;;;;;;;;32.33;32.33;;;;;2.57;75.37;99813.19;4845705;29;11754;-72
2021/12/01 02:54:06;;;;;;;;;28.33;28.33;;;;;2.59;76.30;99810.16;4844750;29;8902;-73
2021/12/01 02:56:36;;;;;;;;;36.67;36.33;;;;;2.53;76.19;99814.91;4845728;29;8865;-73
2021/12/01 02:59:06;;;;;;;;;34.33;33.33;;;;;2.58;76.19;99820.25;4845822;29;8957;-73
2021/12/01 03:01:33;;;;;;;;;35.67;34.33;;;;;2.55;75.75;99815.41;4845680;29;9599;-73
2021/12/01 03:04:03;;;;;;;;;33.67;31.00;;;;;2.32;76.66;99827.25;4828471;29;11782;-73
2021/12/01 03:06:33;;;;;;;;;36.33;36.33;;;;;2.41;76.55;99825.47;4845563;29;8937;-73
2021/12/01 03:09:05;;;;;;;;;43.00;37.00;;;;;2.39;76.29;99824.97;4829214;29;8877;-73
2021/12/01 03:11:37;;;;;;;;;41.67;40.00;;;;;2.55;76.37;99820.06;4845462;29;11759;-73
2021/12/01 03:14:09;;;;;;;;;40.33;39.00;;;;;2.57;76.20;99829.56;4844962;29;11734;-72
2021/12/01 03:16:38;;;;;;;;;32.00;30.33;;;;;2.40;76.55;99821.94;4845363;29;11768;-73
2021/12/01 03:19:06;;;;;;;;;20.33;20.33;;;;;2.43;76.11;99821.31;4828844;29;11760;-73
2021/12/01 03:21:37;;;;;;;;;33.50;32.00;;;;;2.46;76.00;99828.94;4845348;29;11870;-71
2021/12/01 03:24:33;;;;;;;;;28.00;27.33;;;;;2.47;75.71;99837.94;4830417;29;11758;-71
2021/12/01 03:27:29;;;;;;;;;26.67;26.33;;;;;2.40;76.49;99838.31;4838772;29;8865;-71
2021/12/01 03:30:33;;;;;;;;;31.33;29.00;;;;;2.40;76.55;99842.94;4841497;29;9622;-74
2021/12/01 03:33:30;;;;;;;;;22.00;22.00;;;;;2.38;76.06;99845.97;4843940;29;11728;-73
2021/12/01 03:36:26;;;;;;;;;20.67;20.67;;;;;2.34;76.77;99838.69;4844715;29;12533;-73
2021/12/01 03:38:54;;;;;;;;;22.33;21.67;;;;;2.28;76.68;99848.84;4844779;29;11861;-73
2021/12/01 03:41:50;;;;;;;;;17.00;17.00;;;;;2.46;76.28;99845.31;4843971;29;11743;-73
2021/12/01 03:44:45;;;;;;;;;24.33;24.33;;;;;2.25;76.16;99851.38;4827763;29;11745;-73
2021/12/01 03:47:42;;;;;;;;;15.67;15.67;;;;;2.22;76.63;99850.88;4824543;29;11870;-70
2021/12/01 03:50:39;;;;;;;;;15.75;15.75;;;;;2.13;76.40;99849.88;4825388;29;11759;-73
2021/12/01 03:53:34;;;;;;;;;19.67;19.67;;;;;2.21;76.63;99849.22;4834346;29;11725;-73
2021/12/01 03:56:33;;;;;;;;;15.33;15.33;;;;;2.14;76.87;99853.41;4843775;29;11772;-73
2021/12/01 03:59:29;;;;;;;;;16.50;16.50;;;;;2.25;76.09;99852.19;4843811;29;11736;-73
2021/12/01 04:02:24;;;;;;;;;17.75;17.75;;;;;1.98;76.75;99858.28;4825156;29;11755;-72
2021/12/01 04:05:20;;;;;;;;;26.67;24.67;;;;;2.01;75.85;99867.81;4825219;29;11775;-72
2021/12/01 04:08:16;;;;;;;;;20.33;20.33;;;;;2.05;76.35;99869.63;4824867;29;11902;-73
2021/12/01 04:11:12;;;;;;;;;26.33;25.67;;;;;1.95;76.31;99862.41;4825133;29;11781;-71
2021/12/01 04:13:56;;;;;;;;;21.33;20.00;;;;;1.89;76.43;99869.03;4833612;29;11754;-71
2021/12/01 04:16:52;;;;;;;;;18.33;16.00;;;;;1.82;76.78;99876.75;4841398;29;11842;-72
2021/12/01 04:19:48;;;;;;;;;20.33;20.33;;;;;1.69;77.95;99882.94;4841308;29;11742;-71
2021/12/01 04:22:45;;;;;;;;;16.00;16.00;;;;;1.74;78.03;99874.69;4836784;29;8961;-72
2021/12/01 04:25:41;;;;;;;;;22.67;21.33;;;;;1.87;77.53;99879.44;4842903;29;11751;-71
2021/12/01 04:28:36;;;;;;;;;24.67;24.67;;;;;1.96;77.38;99885.03;4842964;29;11763;-72
2021/12/01 04:31:35;;;;;;;;;24.00;24.00;;;;;1.79;77.36;99880.09;4843016;29;8896;-72
2021/12/01 04:34:30;;;;;;;;;24.33;23.00;;;;;1.86;77.96;99883.28;4843107;29;8908;-72
2021/12/01 04:37:16;;;;;;;;;24.00;24.00;;;;;1.87;77.93;99887.63;4844112;29;8913;-72
2021/12/01 04:40:12;;;;;;;;;0.00;0.00;;;;;1.87;77.38;99890.34;4843039;29;8885;-72
2021/12/01 04:43:08;;;;;;;;;42.33;39.00;;;;;1.79;77.95;99890.19;4842558;29;8877;-72
2021/12/01 04:46:04;;;;;;;;;30.33;30.33;;;;;1.90;76.77;99887.03;4842815;29;8873;-71
2021/12/01 04:49:00;;;;;;;;;36.33;36.00;;;;;1.82;76.90;99887.66;4842893;29;8896;-71
2021/12/01 04:51:58;;;;;;;;;29.67;28.67;;;;;1.82;76.79;99878.69;4831522;29;8909;-71
2021/12/01 04:54:54;;;;;;;;;41.33;40.33;;;;;1.60;77.78;99880.03;4842560;29;8890;-72
2021/12/01 04:57:30;;;;;;;;;37.33;36.33;;;;;1.56;77.92;99887.19;4843695;29;8897;-71
2021/12/01 05:00:27;;;;;;;;;32.00;32.00;;;;;1.71;78.20;99891.63;4838176;29;8990;-72
2021/12/01 05:03:22;;;;;;;;;32.00;31.00;;;;;1.82;77.41;99905.94;4826187;29;8896;-71
2021/12/01 05:06:05;;;;;;;;;31.33;31.33;;;;;1.79;77.30;99907.34;4829099;29;8896;-71
2021/12/01 05:09:02;;;;;;;;;27.33;27.33;;;;;1.76;77.21;99910.63;4841120;29;9008;-72
2021/12/01 05:11:58;;;;;;;;;36.00;35.00;;;;;1.68;77.48;99920.28;4830155;29;9666;-72
2021/12/01 05:14:53;;;;;;;;;30.67;30.67;;;;;1.61;78.10;99928.00;4826800;29;9668;-72
2021/12/01 05:17:49;;;;;;;;;34.67;33.67;;;;;1.72;77.79;99923.25;4824178;29;8938;-72
2021/12/01 05:21:11;;;;;;;;;38.33;36.67;;;;;1.99;77.19;99927.28;5068127;27;13540;-71
2021/12/01 05:23:39;;;;;;;;;24.67;24.67;;;;;2.10;76.54;99920.59;5081898;28;8939;-71
2021/12/01 05:26:35;;;;;;;;;30.67;29.33;;;;;2.10;76.90;99924.13;5050159;28;11740;-72
2021/12/01 05:29:31;;;;;;;;;33.33;29.67;;;;;2.05;76.78;99934.28;5048281;28;8849;-71
2021/12/01 05:32:27;;;;;;;;;32.67;31.00;;;;;1.94;77.20;99926.25;5048638;28;8865;-71
2021/12/01 05:35:22;;;;;;;;;27.00;25.00;;;;;1.78;78.36;99938.44;5049772;28;8841;-73
2021/12/01 05:38:18;;;;;;;;;28.33;26.00;;;;;2.19;77.14;99935.19;5044234;28;8930;-72
2021/12/01 05:41:02;;;;;;;;;35.67;30.67;;;;;2.14;77.76;99938.78;5043071;28;8861;-71
2021/12/01 05:43:58;;;;;;;;;25.67;24.67;;;;;2.25;77.49;99944.94;5043554;28;8841;-71
2021/12/01 05:46:27;;;;;;;;;35.67;35.67;;;;;2.37;77.53;99941.75;5048695;28;8845;-73
2021/12/01 05:49:22;;;;;;;;;30.00;27.00;;;;;2.45;77.08;99949.28;5047496;28;8865;-72
2021/12/01 05:52:18;;;;;;;;;28.33;28.33;;;;;2.62;76.39;99954.25;5043256;28;8833;-72
2021/12/01 05:55:14;;;;;;;;;24.67;23.67;;;;;2.71;76.20;99952.47;5042929;28;8864;-71
2021/12/01 05:58:10;;;;;;;;;31.00;30.00;;;;;2.89;76.49;99957.09;5049398;28;8829;-72
2021/12/01 06:01:05;;;;;;;;;36.00;36.00;;;;;2.98;75.48;99947.09;5049360;28;11583;-71
2021/12/01 06:04:02;;;;;;;;;24.25;24.25;;;;;3.05;75.45;99955.72;5049479;28;12342;-71
2021/12/01 06:06:57;;;;;;;;;35.00;31.00;;;;;3.20;75.44;99953.84;5049184;28;12379;-71
2021/12/01 06:09:53;;;;;;;;;24.00;24.00;;;;;3.20;75.39;99948.38;5049418;28;11659;-71
2021/12/01 06:12:49;;;;;;;;;23.00;22.00;;;;;3.38;74.87;99957.66;5042737;28;11564;-70
2021/12/01 06:15:45;;;;;;;;;17.25;17.25;;;;;3.40;75.30;99948.03;5029911;28;11584;-71
2021/12/01 06:18:40;;;;;;;;;23.25;23.25;;;;;3.46;75.68;99949.56;5029236;28;11582;-71
2021/12/01 06:21:09;;;;;;;;;23.00;23.00;;;;;3.56;75.60;99951.28;5031729;28;11620;-71
2021/12/01 06:24:04;;;;;;;;;22.00;22.00;;;;;3.53;75.42;99951.91;5048041;28;11649;-71
2021/12/01 06:27:00;;;;;;;;;24.00;24.00;;;;;3.73;75.38;99940.56;5048786;28;11611;-71
2021/12/01 06:29:56;;;;;;;;;19.25;19.25;;;;;3.63;75.67;99935.31;5046513;28;11548;-73
2021/12/01 06:32:52;;;;;;;;;17.25;17.25;;;;;3.69;75.70;99930.56;5035559;28;12275;-75
2021/12/01 06:35:49;;;;;;;;;20.50;18.75;;;;;3.86;75.67;99939.78;5035474;28;11567;-75
2021/12/01 06:38:45;;;;;;;;;16.00;16.00;;;;;3.83;75.78;99928.59;5036457;28;11608;-75
2021/12/01 06:41:40;;;;;;;;;22.50;18.25;;;;;3.77;76.74;99935.31;5031907;28;11578;-76
2021/12/01 06:44:36;;;;;;;;;16.75;16.75;;;;;3.81;76.96;99928.91;5034583;28;11571;-76
2021/12/01 06:47:32;;;;;;;;;23.25;21.50;;;;;3.97;76.45;99931.34;5015154;28;11598;-76
2021/12/01 06:50:27;;;;;;;;;32.00;31.00;;;;;4.12;76.60;99931.03;5016827;28;11679;-75
2021/12/01 06:53:23;;;;;;;;;23.50;21.75;;;;;3.98;76.61;99924.75;5015191;28;12397;-77
2021/12/01 06:56:19;;;;;;;;;17.25;17.00;;;;;4.09;76.50;99920.69;5022296;28;12395;-77
2021/12/01 06:59:15;;;;;;;;;14.50;14.50;;;;;4.11;76.11;99911.06;5035059;28;11631;-74
2021/12/01 07:02:10;;;;;;;;;17.25;17.25;;;;;4.05;76.29;99917.75;5034801;28;11625;-75
2021/12/01 07:05:07;;;;;;;;;21.50;20.75;;;;;4.02;75.99;99917.56;5034304;28;11646;-74
2021/12/01 07:08:04;;;;;;;;;16.75;16.75;;;;;4.10;76.44;99916.84;5033972;28;11585;-75
2021/12/01 07:11:00;;;;;;;;;18.75;18.75;;;;;4.24;75.57;99911.34;5034479;28;11637;-74
2021/12/01 07:13:45;;;;;;;;;17.00;17.00;;;;;4.24;74.77;99917.63;5034521;28;11617;-76
2021/12/01 07:16:41;;;;;;;;;14.50;14.50;;;;;4.37;73.65;99918.69;5034415;28;12335;-76
2021/12/01 07:19:37;;;;;;;;;20.25;20.25;;;;;4.31;73.89;99914.47;5034053;28;11617;-76
2021/12/01 07:22:33;;;;;;;;;18.00;16.00;;;;;4.56;73.49;99924.84;5034502;28;11556;-76
2021/12/01 07:25:29;;;;;;;;;21.00;21.00;;;;;4.50;73.50;99912.38;5034204;28;11615;-76
2021/12/01 07:27:58;;;;;;;;;17.75;17.25;;;;;4.54;72.61;99920.81;5034205;28;11605;-77
2021/12/01 07:30:54;;;;;;;;;22.25;19.50;;;;;4.57;72.24;99917.44;5033409;28;11577;-77
2021/12/01 07:33:49;;;;;;;;;19.00;18.50;;;;;4.54;70.80;99923.53;5033551;28;11564;-78
2021/12/01 07:36:45;;;;;;;;;14.75;13.50;;;;;4.68;70.04;99932.53;5035833;28;11580;-78
2021/12/01 07:39:42;;;;;;;;;16.50;15.50;;;;;4.76;68.68;99933.72;5033804;28;12315;-76
2021/12/01 07:42:27;;;;;;;;;12.00;12.00;;;;;4.74;68.96;99940.28;5028761;28;11576;-77
2021/12/01 07:45:23;;;;;;;;;19.00;16.75;;;;;4.77;68.88;99941.63;5032361;28;11615;-77
2021/12/01 07:48:19;;;;;;;;;16.75;16.75;;;;;4.78;68.59;99940.50;5031484;28;11570;-78
2021/12/01 07:51:15;;;;;;;;;12.00;12.00;;;;;4.71;67.05;99931.91;5031637;28;11681;-76
2021/12/01 07:53:56;;;;;;;;;11.00;10.75;;;;;4.83;66.94;99921.22;5033950;28;11598;-77
2021/12/01 07:56:53;;;;;;;;;14.50;14.50;;;;;4.63;67.59;99927.97;5034217;28;11523;-77
2021/12/01 07:59:48;;;;;;;;;12.75;12.75;;;;;4.83;67.36;99920.38;5033496;28;12371;-77
2021/12/01 08:02:45;;;;;;;;;10.50;10.50;;;;;4.84;67.43;99920.09;5033825;28;11550;-77
2021/12/01 08:05:17;;;;;;;;;13.50;13.50;;;;;4.91;66.88;99916.91;5034290;28;11537;-77
2021/12/01 08:07:44;;;;;;;;;12.50;12.50;;;;;5.01;67.27;99906.50;5033856;28;11593;-76
2021/12/01 08:10:41;;;;;;;;;11.50;11.50;;;;;5.21;66.57;99909.81;5033521;28;11703;-78
2021/12/01 08:13:09;;;;;;;;;12.00;12.00;;;;;5.10;66.61;99901.06;5034015;28;11537;-78
2021/12/01 08:15:51;;;;;;;;;12.25;10.00;;;;;5.19;66.46;99890.94;5033901;28;11647;-77
2021/12/01 08:18:55;;;;;;;;;10.25;10.25;;;;;5.17;65.92;99895.13;5013355;28;11625;-78
2021/12/01 08:21:51;;;;;;;;;2.00;2.00;;;;;5.38;64.67;99898.16;5014890;28;11620;-77
2021/12/01 08:24:19;;;;;;;;;9.50;9.50;;;;;5.37;64.37;99894.63;5013937;28;11554;-77
2021/12/01 08:27:16;;;;;;;;;9.00;9.00;;;;;5.40;63.42;99877.50;5011899;28;11539;-78
2021/12/01 08:30:12;;;;;;;;;12.50;12.50;;;;;5.50;63.27;99870.94;5013099;28;11574;-78
2021/12/01 08:33:08;;;;;;;;;9.00;8.25;;;;;5.59;62.53;99875.31;5013577;28;11584;-78
2021/12/01 08:36:04;;;;;;;;;7.50;7.50;;;;;5.63;62.52;99875.50;5032872;28;11560;-78
2021/12/01 08:39:00;;;;;;;;;4.50;4.50;;;;;5.40;63.38;99877.50;5032402;28;11604;-77
2021/12/01 08:41:56;;;;;;;;;5.00;5.00;;;;;5.49;64.33;99866.56;5033130;28;11511;-76
2021/12/01 08:44:44;;;;;;;;;12.75;12.75;;;;;5.51;64.76;99864.31;5033416;28;11537;-76
2021/12/01 08:47:40;;;;;;;;;8.00;8.00;;;;;5.45;65.62;99871.09;5032624;28;11549;-77
2021/12/01 08:50:36;;;;;;;;;6.50;6.50;;;;;5.35;66.74;99868.63;5032433;28;12307;-76
2021/12/01 08:53:11;;;;;;;;;9.50;6.00;;;;;5.59;65.42;99869.03;5032377;28;11624;-77
2021/12/01 08:56:08;;;;;;;;;5.75;5.75;;;;;5.48;65.07;99871.25;5032950;28;12344;-77
2021/12/01 08:59:04;;;;;;;;;44.00;41.75;;;;;5.65;63.55;99855.97;5014263;28;11514;-77
2021/12/01 09:02:02;;;;;;;;;9.75;9.75;;;;;5.76;62.98;99849.91;5029269;28;11570;-75
2021/12/01 09:04:30;;;;;;;;;15.00;15.00;;;;;5.74;63.31;99852.13;5032658;28;11555;-74
2021/12/01 09:07:26;;;;;;;;;6.00;6.00;;;;;5.60;63.58;99845.97;5032618;28;11585;-73
2021/12/01 09:10:21;;;;;;;;;8.50;8.50;;;;;5.73;62.83;99845.03;5043446;28;11602;-72
2021/12/01 09:12:50;;;;;;;;;11.50;11.50;;;;;5.75;62.99;99850.19;5031561;28;12315;-73
2021/12/01 09:15:17;;;;;;;;;12.00;12.00;;;;;5.57;63.31;99849.34;5031662;28;11562;-73
2021/12/01 09:18:13;;;;;;;;;8.00;8.00;;;;;5.28;64.77;99853.41;5032913;28;12313;-73
2021/12/01 09:21:09;;;;;;;;;10.00;10.00;;;;;5.47;64.66;99847.72;5032348;28;11535;-74
2021/12/01 09:24:05;;;;;;;;;12.25;9.50;;;;;5.50;64.62;99844.31;5032376;28;11535;-73
2021/12/01 09:26:33;;;;;;;;;13.25;13.25;;;;;5.61;63.88;99858.56;5032597;28;11543;-73
2021/12/01 09:29:29;;;;;;;;;9.00;9.00;;;;;5.73;63.91;99853.25;5032298;28;11575;-72
2021/12/01 09:32:25;;;;;;;;;12.50;11.50;;;;;5.73;64.70;99844.22;5032286;28;11539;-73
2021/12/01 09:35:20;;;;;;;;;14.25;12.75;;;;;5.52;66.59;99833.84;5031327;28;11605;-72
2021/12/01 09:38:18;;;;;;;;;11.00;11.00;;;;;5.50;67.24;99840.75;5032534;28;11579;-72
2021/12/01 09:41:14;;;;;;;;;12.00;12.00;;;;;5.14;68.85;99843.69;5054777;28;11722;-73
2021/12/01 09:44:10;;;;;;;;;9.25;8.75;;;;;5.29;69.48;99837.78;5032077;28;11607;-73
2021/12/01 09:47:07;;;;;;;;;8.25;7.75;;;;;5.23;69.81;99845.34;5030063;28;12305;-73
2021/12/01 09:50:05;;;;;;;;;12.00;12.00;;;;;5.20;70.97;99842.41;5030452;28;11515;-73
2021/12/01 09:53:00;;;;;;;;;12.25;10.50;;;;;5.19;71.94;99841.59;5033492;28;11557;-73
2021/12/01 09:55:56;;;;;;;;;13.25;12.50;;;;;5.24;73.11;99836.00;5031810;28;12326;-73
2021/12/01 09:58:53;;;;;;;;;16.50;16.50;;;;;4.98;75.70;99833.16;5024543;28;12391;-73
2021/12/01 10:01:48;;;;;;;;;12.25;12.25;;;;;5.08;75.26;99837.53;5012112;28;11662;-72
2021/12/01 10:04:45;;;;;;;;;14.75;14.75;;;;;5.02;75.56;99841.53;5013844;28;11653;-73
2021/12/01 10:07:34;;;;;;;;;7.00;7.00;;;;;5.07;75.89;99841.41;5015938;28;11621;-74
2021/12/01 10:10:37;;;;;;;;;12.00;12.00;;;;;4.74;76.87;99835.41;5039121;28;11578;-72
2021/12/01 10:13:05;;;;;;;;;9.00;9.00;;;;;4.78;77.15;99841.06;5047471;28;11571;-72
2021/12/01 10:16:05;;;;;;;;;11.00;11.00;;;;;5.20;76.17;99825.97;5027239;28;11543;-72
2021/12/01 10:18:45;;;;;;;;;10.00;10.00;;;;;5.55;75.23;99818.69;5015923;28;11680;-72
2021/12/01 10:21:38;;;;;;;;;15.25;13.25;;;;;5.49;74.77;99828.19;5015985;28;11603;-72
2021/12/01 10:24:36;;;;;;;;;11.00;11.00;;;;;5.16;75.67;99823.06;5015673;28;11570;-72
2021/12/01 10:27:38;;;;;;;;;15.25;14.00;;;;;5.05;75.31;99827.19;5015668;28;11576;-73
2021/12/01 10:30:44;;;;;;;;;11.25;11.25;;;;;4.97;75.82;99825.22;5030289;28;12318;-72
2021/12/01 10:33:41;;;;;;;;;15.50;13.00;;;;;4.74;76.81;99817.03;5015894;28;11683;-72
2021/12/01 10:36:37;;;;;;;;;14.50;12.00;;;;;4.68;77.79;99812.03;5017762;28;11601;-73
2021/12/01 10:39:33;;;;;;;;;12.25;12.25;;;;;4.54;78.17;99809.34;5028216;28;11567;-73
2021/12/01 10:42:29;;;;;;;;;13.25;12.75;;;;;4.53;78.18;99810.47;5035083;28;11554;-73
2021/12/01 10:45:32;;;;;;;;;13.25;13.25;;;;;4.63;78.22;99799.25;5035025;28;11561;-73
2021/12/01 10:48:27;;;;;;;;;12.75;12.75;;;;;4.78;78.48;99794.50;5034948;28;11621;-73
2021/12/01 10:51:04;;;;;;;;;15.25;13.50;;;;;4.93;77.95;99796.84;5035382;28;11657;-73
2021/12/01 10:54:00;;;;;;;;;11.25;11.25;;;;;4.84;76.76;99799.53;5035223;28;11653;-72
2021/12/01 10:57:23;;;;;;;;;12.75;12.25;;;;;4.99;75.51;99799.13;5035009;28;11569;-73
2021/12/01 11:00:28;;;;;;;;;11.00;11.00;;;;;4.81;74.90;99799.34;5034773;28;11693;-73
2021/12/01 11:03:26;;;;;;;;;12.75;12.75;;;;;5.04;74.99;99795.44;5034853;28;11526;-75
2021/12/01 11:06:23;;;;;;;;;9.25;9.25;;;;;4.95;75.77;99800.06;5015069;28;11587;-73
2021/12/01 11:09:21;;;;;;;;;10.50;8.75;;;;;4.78;75.22;99789.84;5014816;28;11570;-73
2021/12/01 11:12:27;;;;;;;;;19.25;17.75;;;;;4.91;75.73;99794.41;5014856;28;11683;-73
2021/12/01 11:15:30;;;;;;;;;9.00;9.00;;;;;4.93;76.01;99783.13;5028110;28;11739;-74
2021/12/01 11:18:29;;;;;;;;;11.75;11.75;;;;;5.15;75.81;99780.34;5032404;28;11542;-72
2021/12/01 11:21:28;;;;;;;;;12.50;11.00;;;;;5.07;76.38;99774.81;5034193;28;12272;-74
2021/12/01 11:24:24;;;;;;;;;15.25;15.25;;;;;4.94;77.01;99771.88;5034733;28;11498;-74
2021/12/01 11:27:19;;;;;;;;;10.00;10.00;;;;;5.07;76.93;99763.88;5033327;28;11617;-74
2021/12/01 11:30:16;;;;;;;;;11.75;11.75;;;;;4.92;77.16;99765.09;5035043;28;11613;-74
2021/12/01 11:33:16;;;;;;;;;16.50;16.50;;;;;4.83;78.68;99762.31;5034419;28;12194;-74
2021/12/01 11:36:21;;;;;;;;;12.00;12.00;;;;;4.95;77.80;99767.19;5020101;28;11576;-74
2021/12/01 11:39:22;;;;;;;;;11.50;11.00;;;;;5.15;77.50;99763.09;5013852;28;11603;-72
2021/12/01 11:42:19;;;;;;;;;15.25;14.75;;;;;5.05;77.86;99761.41;5026949;28;11733;-74
2021/12/01 11:44:49;;;;;;;;;9.00;9.00;;;;;5.12;77.26;99764.50;5065748;28;11587;-74
2021/12/01 11:47:48;;;;;;;;;6.00;6.00;;;;;5.10;77.49;99760.47;5033595;28;12335;-74
2021/12/01 11:51:02;;;;;;;;;16.25;16.25;;;;;4.88;78.22;99761.34;5012459;28;11497;-73
2021/12/01 11:54:04;;;;;;;;;13.00;13.00;;;;;4.99;77.68;99766.25;5037222;28;11621;-73
2021/12/01 11:56:38;;;;;;;;;13.00;13.00;;;;;4.81;76.85;99775.50;5028227;28;11570;-74
2021/12/01 11:59:47;;;;;;;;;13.00;12.75;;;;;4.82;77.43;99759.88;5033157;28;11677;-74
2021/12/01 12:02:28;;;;;;;;;9.75;9.75;;;;;4.85;77.88;99767.47;5032465;28;12334;-73
2021/12/01 12:04:57;;;;;;;;;12.00;12.00;;;;;4.97;78.36;99764.94;5018879;28;11573;-73
2021/12/01 12:07:53;;;;;;;;;10.75;10.75;;;;;4.91;78.37;99766.22;5018984;28;11662;-74
2021/12/01 12:10:48;;;;;;;;;15.25;15.25;;;;;4.95;77.88;99770.72;5033169;28;11549;-73
2021/12/01 12:14:02;;;;;;;;;12.50;12.00;;;;;4.78;79.28;99783.53;5033633;28;11569;-75
2021/12/01 12:17:12;;;;;;;;;11.50;11.50;;;;;4.37;80.70;99790.88;5031385;28;11569;-72
2021/12/01 12:20:39;;;;;;;;;13.75;13.75;;;;;4.69;79.73;99789.78;5029236;28;11509;-73
2021/12/01 12:23:12;;;;;;;;;15.25;13.00;;;;;4.72;80.00;99791.09;5020194;28;11530;-73
2021/12/01 12:25:53;;;;;;;;;13.25;13.25;;;;;4.72;80.29;99800.09;5013653;28;12303;-73
2021/12/01 12:28:36;;;;;;;;;14.00;11.75;;;;;4.76;80.25;99799.50;5012812;28;11544;-73
2021/12/01 12:31:26;;;;;;;;;14.00;14.00;;;;;4.81;79.91;99794.66;5020972;28;12305;-73
2021/12/01 12:34:01;;;;;;;;;15.50;15.50;;;;;4.67;81.28;99805.69;5032273;28;11597;-74
2021/12/01 12:36:50;;;;;;;;;15.50;15.50;;;;;4.81;80.88;99802.09;5022263;28;11608;-73
2021/12/01 12:39:43;;;;;;;;;18.00;18.00;;;;;4.85;80.79;99805.81;5026779;28;11584;-73
2021/12/01 12:42:12;;;;;;;;;18.50;16.00;;;;;4.91;80.54;99807.31;5032638;28;11571;-74
2021/12/01 12:44:51;;;;;;;;;19.25;15.00;;;;;4.79;81.22;99807.06;5033026;28;11589;-73
2021/12/01 12:47:49;;;;;;;;;13.50;13.00;;;;;4.90;80.41;99811.16;5033145;28;11632;-73
2021/12/01 12:51:13;;;;;;;;;16.50;16.00;;;;;4.99;79.75;99803.81;5036637;28;11527;-72
2021/12/01 12:54:09;;;;;;;;;12.75;12.25;;;;;4.87;79.57;99812.59;5011536;28;11601;-73
2021/12/01 12:57:07;;;;;;;;;22.25;13.75;;;;;4.96;79.32;99812.63;5029107;28;11715;-73
2021/12/01 13:00:38;;;;;;;;;17.75;16.75;;;;;4.99;79.15;99823.00;5020398;28;11631;-73
2021/12/01 13:03:34;;;;;;;;;14.00;14.00;;;;;4.92;79.02;99817.97;5005942;28;11573;-73
2021/12/01 13:06:31;;;;;;;;;9.50;8.50;;;;;5.05;77.94;99829.13;5029885;28;11567;-73
2021/12/01 13:09:29;;;;;;;;;14.75;14.75;;;;;5.14;77.04;99828.06;5051257;28;11596;-74
2021/12/01 13:12:24;;;;;;;;;15.75;15.75;;;;;5.08;76.08;99843.03;5051021;28;11566;-73
2021/12/01 13:15:23;;;;;;;;;14.25;14.25;;;;;5.09;76.62;99839.16;5035712;28;12351;-74
2021/12/01 13:18:22;;;;;;;;;18.75;18.75;;;;;5.04;75.89;99850.25;5025329;28;11572;-74
2021/12/01 13:21:22;;;;;;;;;24.00;20.00;;;;;5.11;76.20;99858.81;5042790;28;12448;-74
2021/12/01 13:24:18;;;;;;;;;16.00;16.00;;;;;5.27;75.16;99860.03;5033223;28;11589;-74
2021/12/01 13:27:13;;;;;;;;;13.00;13.00;;;;;5.32;74.95;99861.03;5012593;28;12483;-73
2021/12/01 13:30:11;;;;;;;;;15.75;13.50;;;;;5.24;74.76;99863.41;5022665;28;11566;-72